createdAt,value
2023-05-24T00:00:18.831Z,100463.53
2023-05-24T00:02:46.436Z,100474.50
2023-05-24T00:05:16.607Z,100469.41
2023-05-24T00:07:43.695Z,100471.91
2023-05-24T00:10:11.724Z,100472.72
2023-05-24T00:12:38.744Z,100469.34
2023-05-24T00:15:06.639Z,100474.34
2023-05-24T00:17:41.108Z,100475.16
2023-05-24T00:20:13.791Z,100476.81
2023-05-24T00:22:42.022Z,100480.16
2023-05-24T00:25:09.515Z,100484.34
2023-05-24T00:27:37.340Z,100479.25
2023-05-24T00:30:06.300Z,100481.78
2023-05-24T00:32:33.585Z,100477.53
2023-05-24T00:35:00.826Z,100472.44
2023-05-24T00:37:29.432Z,100467.31
2023-05-24T00:39:57.782Z,100472.34
2023-05-24T00:42:24.921Z,100471.47
2023-05-24T00:44:51.971Z,100475.63
2023-05-24T00:47:19.512Z,100469.69
2023-05-24T00:49:46.879Z,100462.88
2023-05-24T00:52:14.219Z,100461.16
2023-05-24T00:54:41.237Z,100470.41
2023-05-24T00:57:08.598Z,100462.78
2023-05-24T00:59:36.604Z,100467.81
2023-05-24T01:02:05.300Z,100463.50
2023-05-24T01:04:33.189Z,100460.06
2023-05-24T01:07:37.921Z,100462.56
2023-05-24T01:10:32.032Z,100465.00
2023-05-24T01:13:38.829Z,100471.66
2023-05-24T01:16:11.962Z,100474.09
2023-05-24T01:18:54.971Z,100476.63
2023-05-24T01:21:56.180Z,100472.34
2023-05-24T01:25:07.332Z,100479.84
2023-05-24T01:27:38.549Z,100484.00
2023-05-24T01:30:07.184Z,100479.78
2023-05-24T01:32:34.707Z,100475.56
2023-05-24T01:35:01.807Z,100476.38
2023-05-24T01:37:28.839Z,100481.44
2023-05-24T01:39:56.109Z,100472.94
2023-05-24T01:42:33.676Z,100470.41
2023-05-24T01:45:33.833Z,100473.72
2023-05-24T01:48:19.543Z,100469.47
2023-05-24T01:50:54.458Z,100466.91
2023-05-24T01:53:26.324Z,100466.03
2023-05-24T01:55:58.796Z,100467.72
2023-05-24T01:58:27.624Z,100462.66
2023-05-24T02:00:55.752Z,100458.41
2023-05-24T02:03:22.888Z,100461.75
2023-05-24T02:05:50.026Z,100460.88
2023-05-24T02:08:17.127Z,100460.88
2023-05-24T02:10:45.590Z,100454.97
2023-05-24T02:13:12.732Z,100455.78
2023-05-24T02:15:41.886Z,100450.72
2023-05-24T02:18:13.075Z,100445.66
2023-05-24T02:20:40.739Z,100449.00
2023-05-24T02:23:08.044Z,100446.44
2023-05-24T02:25:37.330Z,100452.31
2023-05-24T02:28:04.318Z,100445.53
2023-05-24T02:30:31.331Z,100445.53
2023-05-24T02:32:58.450Z,100448.03
2023-05-24T02:35:25.870Z,100448.84
2023-05-24T02:37:53.129Z,100443.72
2023-05-24T02:40:20.286Z,100440.25
2023-05-24T02:42:48.078Z,100443.53
2023-05-24T02:45:15.162Z,100439.25
2023-05-24T02:47:42.264Z,100440.84
2023-05-24T02:50:10.389Z,100436.59
2023-05-24T02:52:37.414Z,100428.13
2023-05-24T02:55:06.185Z,100434.78
2023-05-24T02:57:34.175Z,100430.59
2023-05-24T03:00:01.554Z,100428.88
2023-05-24T03:02:34.069Z,100430.53
2023-05-24T03:05:01.449Z,100427.19
2023-05-24T03:07:29.687Z,100429.72
2023-05-24T03:09:56.665Z,100439.81
2023-05-24T03:12:23.684Z,100433.94
2023-05-24T03:14:51.188Z,100444.84
2023-05-24T03:17:18.265Z,100446.47
2023-05-24T03:19:45.411Z,100437.16
2023-05-24T03:22:13.297Z,100446.38
2023-05-24T03:24:40.558Z,100434.53
2023-05-24T03:27:08.751Z,100417.66
2023-05-24T03:29:35.986Z,100418.53
2023-05-24T03:32:03.513Z,100429.47
2023-05-24T03:34:31.441Z,100427.81
2023-05-24T03:36:58.614Z,100432.88
2023-05-24T03:39:25.925Z,100430.34
2023-05-24T03:42:05.770Z,100431.19
2023-05-24T03:44:32.911Z,100434.59
2023-05-24T03:47:00.017Z,100435.44
2023-05-24T03:49:27.084Z,100433.75
2023-05-24T03:51:55.439Z,100427.88
2023-05-24T03:54:22.488Z,100439.69
2023-05-24T03:56:50.617Z,100428.78
2023-05-24T03:59:17.879Z,100447.38
2023-05-24T04:01:45.069Z,100441.53
2023-05-24T04:04:12.227Z,100449.13
2023-05-24T04:06:41.844Z,100446.63
2023-05-24T04:09:10.037Z,100450.91
2023-05-24T04:11:37.145Z,100453.53
2023-05-24T04:14:04.202Z,100455.25
2023-05-24T04:16:34.227Z,100452.03
2023-05-24T04:19:04.635Z,100457.25
2023-05-24T04:21:33.266Z,100461.63
2023-05-24T04:24:01.612Z,100451.72
2023-05-24T04:26:29.738Z,100458.69
2023-05-24T04:28:57.874Z,100459.72
2023-05-24T04:31:26.183Z,100463.38
2023-05-24T04:33:53.319Z,100463.56
2023-05-24T04:36:22.905Z,100460.41
2023-05-24T04:38:50.374Z,100463.97
2023-05-24T04:41:17.492Z,100470.06
2023-05-24T04:43:44.902Z,100479.56
2023-05-24T04:46:13.003Z,100479.75
2023-05-24T04:48:40.663Z,100484.16
2023-05-24T04:51:07.708Z,100486.84
2023-05-24T04:53:34.676Z,100488.69
2023-05-24T04:56:01.676Z,100483.69
2023-05-24T04:58:28.817Z,100482.09
2023-05-24T05:00:55.918Z,100481.31
2023-05-24T05:03:23.057Z,100476.31
2023-05-24T05:05:50.169Z,100489.06
2023-05-24T05:08:17.176Z,100482.28
2023-05-24T05:10:44.631Z,100479.72
2023-05-24T05:13:11.798Z,100482.25
2023-05-24T05:15:39.615Z,100478.00
2023-05-24T05:18:07.597Z,100474.50
2023-05-24T05:20:34.829Z,100480.38
2023-05-24T05:23:01.959Z,100482.81
2023-05-24T05:25:30.899Z,100483.53
2023-05-24T05:27:58.080Z,100492.78
2023-05-24T05:30:25.149Z,100484.13
2023-05-24T05:32:52.926Z,100495.88
2023-05-24T05:35:20.487Z,100502.53
2023-05-24T05:37:47.579Z,100506.63
2023-05-24T05:40:14.640Z,100502.22
2023-05-24T05:42:41.788Z,100490.97
2023-05-24T05:45:09.298Z,100494.19
2023-05-24T05:47:36.513Z,100499.09
2023-05-24T05:50:03.763Z,100500.63
2023-05-24T05:52:31.394Z,100502.97
2023-05-24T05:54:59.290Z,100496.84
2023-05-24T05:57:26.891Z,100494.03
2023-05-24T05:59:53.985Z,100496.31
2023-05-24T06:02:22.682Z,100492.63
2023-05-24T06:04:50.405Z,100495.81
2023-05-24T06:07:17.428Z,100491.28
2023-05-24T06:09:44.480Z,100496.13
2023-05-24T06:12:11.588Z,100490.66
2023-05-24T06:14:38.687Z,100491.16
2023-05-24T06:17:06.758Z,100484.09
2023-05-24T06:19:33.835Z,100494.22
2023-05-24T06:22:01.293Z,100495.81
2023-05-24T06:24:28.559Z,100492.25
2023-05-24T06:26:55.890Z,100492.97
2023-05-24T06:29:25.076Z,100494.56
2023-05-24T06:31:52.421Z,100498.75
2023-05-24T06:34:23.089Z,100502.94
2023-05-24T06:36:51.507Z,100495.22
2023-05-24T06:39:19.520Z,100498.47
2023-05-24T06:41:47.077Z,100495.66
2023-05-24T06:44:14.659Z,100498.72
2023-05-24T06:46:41.911Z,100492.47
2023-05-24T06:49:09.050Z,100493.81
2023-05-24T06:51:37.942Z,100485.72
2023-05-24T06:54:04.980Z,100489.41
2023-05-24T06:56:32.105Z,100497.31
2023-05-24T06:58:59.936Z,100494.06
2023-05-24T07:01:27.568Z,100490.66
2023-05-24T07:03:55.078Z,100493.78
2023-05-24T07:06:22.271Z,100489.25
2023-05-24T07:08:49.233Z,100492.41
2023-05-24T07:11:16.542Z,100488.94
2023-05-24T07:13:43.607Z,100496.69
2023-05-24T07:16:11.673Z,100503.63
2023-05-24T07:18:38.803Z,100507.03
2023-05-24T07:21:05.932Z,100513.50
2023-05-24T07:23:32.962Z,100509.50
2023-05-24T07:26:00.192Z,100516.88
2023-05-24T07:28:27.544Z,100519.72
2023-05-24T07:30:54.536Z,100521.63
2023-05-24T07:33:21.890Z,100519.75
2023-05-24T07:35:51.634Z,100513.63
2023-05-24T07:38:18.971Z,100504.25
2023-05-24T07:40:46.137Z,100509.53
2023-05-24T07:43:13.204Z,100518.94
2023-05-24T07:45:40.352Z,100516.41
2023-05-24T07:48:07.942Z,100516.63
2023-05-24T07:50:35.048Z,100523.94
2023-05-24T07:53:02.652Z,100518.91
2023-05-24T07:55:29.599Z,100513.38
2023-05-24T07:57:56.770Z,100529.78
2023-05-24T08:00:23.822Z,100517.28
2023-05-24T08:02:50.838Z,100520.25
2023-05-24T08:05:18.184Z,100516.13
2023-05-24T08:07:45.671Z,100519.22
2023-05-24T08:10:13.749Z,100521.22
2023-05-24T08:12:42.051Z,100523.13
2023-05-24T08:15:10.263Z,100518.59
2023-05-24T08:17:39.441Z,100522.91
2023-05-24T08:20:10.428Z,100522.22
2023-05-24T08:22:37.682Z,100522.75
2023-05-24T08:25:06.658Z,100523.44
2023-05-24T08:27:33.769Z,100523.63
2023-05-24T08:30:01.128Z,100523.53
2023-05-24T08:32:29.529Z,100522.66
2023-05-24T08:35:06.631Z,100518.19
2023-05-24T08:37:38.460Z,100512.25
2023-05-24T08:40:07.646Z,100514.75
2023-05-24T08:42:38.408Z,100512.19
2023-05-24T08:45:11.994Z,100517.94
2023-05-24T08:47:40.572Z,100517.91
2023-05-24T08:50:08.757Z,100511.88
2023-05-24T08:52:36.570Z,100513.25
2023-05-24T08:55:08.508Z,100512.47
2023-05-24T08:57:39.933Z,100504.91
2023-05-24T09:00:12.664Z,100505.00
2023-05-24T09:02:42.667Z,100501.44
2023-05-24T09:05:14.356Z,100505.47
2023-05-24T09:07:44.920Z,100500.16
2023-05-24T09:10:12.320Z,100502.25
2023-05-24T09:12:44.553Z,100507.91
2023-05-24T09:15:12.345Z,100505.50
2023-05-24T09:17:40.649Z,100499.81
2023-05-24T09:20:10.268Z,100501.28
2023-05-24T09:22:41.310Z,100492.88
2023-05-24T09:25:12.952Z,100511.91
2023-05-24T09:27:40.126Z,100506.34
2023-05-24T09:30:12.554Z,100507.91
2023-05-24T09:32:41.074Z,100511.47
2023-05-24T09:35:10.450Z,100500.94
2023-05-24T09:37:41.869Z,100506.13
2023-05-24T09:40:22.566Z,100496.22
2023-05-24T09:43:02.132Z,100494.72
2023-05-24T09:45:29.191Z,100491.00
2023-05-24T09:47:56.705Z,100492.69
2023-05-24T09:50:23.704Z,100482.63
2023-05-24T09:52:51.860Z,100482.34
2023-05-24T09:55:20.726Z,100481.84
2023-05-24T09:58:02.305Z,100483.28
2023-05-24T10:00:29.561Z,100475.53
2023-05-24T10:03:07.237Z,100483.25
2023-05-24T10:05:36.405Z,100483.88
2023-05-24T10:08:07.001Z,100484.16
2023-05-24T10:10:34.349Z,100481.63
2023-05-24T10:13:02.699Z,100476.22
2023-05-24T10:15:30.833Z,100476.69
2023-05-24T10:17:59.899Z,100478.66
2023-05-24T10:20:27.158Z,100484.56
2023-05-24T10:23:01.725Z,100486.47
2023-05-24T10:25:32.958Z,100481.41
2023-05-24T10:28:08.722Z,100489.44
2023-05-24T10:31:00.155Z,100488.25
2023-05-24T10:33:27.794Z,100484.47
2023-05-24T10:35:56.664Z,100479.19
2023-05-24T10:38:26.735Z,100481.81
2023-05-24T10:40:53.902Z,100487.53
2023-05-24T10:43:22.161Z,100476.84
2023-05-24T10:45:51.145Z,100476.34
2023-05-24T10:48:24.211Z,100483.59
2023-05-24T10:50:51.140Z,100485.63
2023-05-24T10:53:23.553Z,100483.16
2023-05-24T10:56:04.064Z,100483.09
2023-05-24T10:58:59.844Z,100485.56
2023-05-24T11:01:29.556Z,100487.00
2023-05-24T11:04:16.911Z,100483.47
2023-05-24T11:06:55.637Z,100476.22
2023-05-24T11:09:24.331Z,100476.34
2023-05-24T11:11:56.767Z,100475.47
2023-05-24T11:14:29.603Z,100470.28
2023-05-24T11:16:58.276Z,100478.81
2023-05-24T11:19:47.124Z,100479.69
2023-05-24T11:22:15.192Z,100475.31
2023-05-24T11:24:42.885Z,100479.63
2023-05-24T11:27:13.594Z,100472.72
2023-05-24T11:29:45.986Z,100473.25
2023-05-24T11:32:18.725Z,100475.91
2023-05-24T11:34:50.973Z,100463.16
2023-05-24T11:37:18.840Z,100471.28
2023-05-24T11:39:53.001Z,100470.34
2023-05-24T11:42:22.529Z,100468.81
2023-05-24T11:44:50.496Z,100469.19
2023-05-24T11:47:20.822Z,100461.91
2023-05-24T11:49:51.521Z,100463.22
2023-05-24T11:52:18.531Z,100463.59
2023-05-24T11:54:45.605Z,100464.75
2023-05-24T11:57:12.862Z,100459.00
2023-05-24T11:59:41.808Z,100462.59
2023-05-24T12:02:09.098Z,100457.63
2023-05-24T12:04:36.382Z,100465.53
2023-05-24T12:07:03.716Z,100461.41
2023-05-24T12:09:30.752Z,100459.88
2023-05-24T12:11:58.431Z,100453.94
2023-05-24T12:14:33.305Z,100455.50
2023-05-24T12:17:01.241Z,100455.16
2023-05-24T12:19:36.946Z,100458.72
2023-05-24T12:22:07.250Z,100449.16
2023-05-24T12:24:35.196Z,100447.41
2023-05-24T12:27:07.570Z,100439.72
2023-05-24T12:29:40.767Z,100437.91
2023-05-24T12:32:14.633Z,100435.22
2023-05-24T12:34:43.711Z,100436.06
2023-05-24T12:37:15.425Z,100431.81
2023-05-24T12:39:44.289Z,100430.38
2023-05-24T12:42:16.061Z,100427.94
2023-05-24T12:44:44.958Z,100435.41
2023-05-24T12:47:12.156Z,100431.63
2023-05-24T12:49:39.189Z,100428.56
2023-05-24T12:52:06.648Z,100421.91
2023-05-24T12:54:34.005Z,100419.88
2023-05-24T12:57:02.646Z,100424.34
2023-05-24T12:59:30.048Z,100427.47
2023-05-24T13:01:57.744Z,100425.25
2023-05-24T13:04:30.360Z,100426.75
2023-05-24T13:06:57.449Z,100421.63
2023-05-24T13:09:25.918Z,100425.91
2023-05-24T13:11:54.134Z,100429.19
2023-05-24T13:14:21.607Z,100424.81
2023-05-24T13:16:49.023Z,100429.78
2023-05-24T13:19:17.074Z,100426.31
2023-05-24T13:21:44.190Z,100415.75
2023-05-24T13:24:14.644Z,100422.34
2023-05-24T13:26:41.938Z,100416.72
2023-05-24T13:31:40.718Z,100412.44
2023-05-24T13:34:10.681Z,100411.94
2023-05-24T13:36:40.770Z,100408.69
2023-05-24T13:41:41.109Z,100410.06
2023-05-24T13:44:08.702Z,100407.22
2023-05-24T13:46:36.381Z,100404.53
2023-05-24T13:49:04.421Z,100411.69
2023-05-24T13:51:32.804Z,100411.22
2023-05-24T13:54:00.314Z,100403.09
2023-05-24T13:56:32.561Z,100406.81
2023-05-24T13:59:02.409Z,100400.97
2023-05-24T14:01:30.349Z,100411.59
2023-05-24T14:03:57.511Z,100404.28
2023-05-24T14:06:24.702Z,100400.28
2023-05-24T14:08:52.213Z,100399.63
2023-05-24T14:11:19.792Z,100398.06
2023-05-24T14:16:19.551Z,100402.38
2023-05-24T14:18:48.979Z,100402.25
2023-05-24T14:21:17.831Z,100408.16
2023-05-24T14:23:44.929Z,100403.75
2023-05-24T14:26:12.014Z,100406.28
2023-05-24T14:28:39.235Z,100409.00
2023-05-24T14:31:06.449Z,100401.56
2023-05-24T14:33:33.648Z,100413.84
2023-05-24T14:36:01.689Z,100417.53
2023-05-24T14:38:30.303Z,100412.56
2023-05-24T14:41:00.429Z,100417.72
2023-05-24T14:43:27.506Z,100405.59
2023-05-24T14:45:54.603Z,100406.34
2023-05-24T14:48:21.723Z,100410.50
2023-05-24T14:50:48.775Z,100412.25
2023-05-24T14:53:15.841Z,100407.22
2023-05-24T14:55:44.071Z,100405.78
2023-05-24T14:58:11.993Z,100402.56
2023-05-24T15:00:42.947Z,100400.38
2023-05-24T15:03:12.565Z,100399.03
2023-05-24T15:05:41.589Z,100397.59
2023-05-24T15:08:10.878Z,100401.78
2023-05-24T15:10:39.188Z,100395.41
2023-05-24T15:13:06.668Z,100395.94
2023-05-24T15:15:33.718Z,100397.72
2023-05-24T15:18:00.917Z,100408.91
2023-05-24T15:20:28.049Z,100403.00
2023-05-24T15:22:55.446Z,100400.56
2023-05-24T15:25:22.715Z,100403.31
2023-05-24T15:27:49.715Z,100398.38
2023-05-24T15:30:19.931Z,100401.28
2023-05-24T15:32:47.511Z,100400.66
2023-05-24T15:35:14.590Z,100405.03
2023-05-24T15:37:43.022Z,100405.97
2023-05-24T15:40:11.343Z,100395.75
2023-05-24T15:42:39.215Z,100394.09
2023-05-24T15:45:07.486Z,100397.53
2023-05-24T15:47:40.119Z,100387.19
2023-05-24T15:50:08.716Z,100396.50
2023-05-24T15:52:36.272Z,100390.41
2023-05-24T15:55:03.784Z,100396.31
2023-05-24T15:57:31.695Z,100392.81
2023-05-24T15:59:58.907Z,100379.13
2023-05-24T16:02:26.299Z,100386.97
2023-05-24T16:04:54.157Z,100391.34
2023-05-24T16:07:21.238Z,100384.66
2023-05-24T16:09:50.725Z,100391.63
2023-05-24T16:12:18.409Z,100387.47
2023-05-24T16:14:45.516Z,100380.59
2023-05-24T16:17:13.091Z,100384.03
2023-05-24T16:19:40.489Z,100379.81
2023-05-24T16:22:08.072Z,100375.53
2023-05-24T16:24:35.097Z,100383.38
2023-05-24T16:27:02.151Z,100379.28
2023-05-24T16:29:29.408Z,100373.53
2023-05-24T16:31:56.429Z,100373.81
2023-05-24T16:34:24.711Z,100374.75
2023-05-24T16:36:52.133Z,100366.31
2023-05-24T16:39:19.192Z,100361.19
2023-05-24T16:41:46.267Z,100364.63
2023-05-24T16:44:17.818Z,100360.41
2023-05-24T16:46:45.987Z,100357.94
2023-05-24T16:49:13.352Z,100352.00
2023-05-24T16:51:40.788Z,100368.41
2023-05-24T16:54:08.865Z,100352.22
2023-05-24T16:56:37.539Z,100360.88
2023-05-24T16:59:05.296Z,100364.38
2023-05-24T17:01:32.429Z,100364.50
2023-05-24T17:03:59.831Z,100367.31
2023-05-24T17:06:27.044Z,100371.81
2023-05-24T17:08:54.164Z,100367.78
2023-05-24T17:11:22.839Z,100362.97
2023-05-24T17:13:51.370Z,100364.16
2023-05-24T17:16:18.740Z,100376.50
2023-05-24T17:18:45.986Z,100375.97
2023-05-24T17:21:12.989Z,100378.00
2023-05-24T17:23:40.075Z,100374.91
2023-05-24T17:26:08.216Z,100378.63
2023-05-24T17:28:36.358Z,100377.19
2023-05-24T17:31:04.252Z,100379.19
2023-05-24T17:33:32.112Z,100390.41
2023-05-24T17:36:02.697Z,100385.50
2023-05-24T17:38:33.028Z,100381.41
2023-05-24T17:41:00.331Z,100381.53
2023-05-24T17:43:34.373Z,100379.13
2023-05-24T17:46:04.045Z,100387.03
2023-05-24T17:48:55.589Z,100393.19
2023-05-24T17:51:24.476Z,100387.47
2023-05-24T17:53:51.559Z,100390.22
2023-05-24T17:56:18.784Z,100385.28
2023-05-24T17:58:47.595Z,100383.69
2023-05-24T18:01:15.226Z,100372.72
2023-05-24T18:03:42.767Z,100383.09
2023-05-24T18:06:10.121Z,100381.47
2023-05-24T18:08:43.047Z,100386.63
2023-05-24T18:11:12.615Z,100390.16
2023-05-24T18:13:42.508Z,100393.59
2023-05-24T18:16:11.374Z,100391.13
2023-05-24T18:18:39.352Z,100386.88
2023-05-24T18:21:09.546Z,100386.88
2023-05-24T18:23:40.230Z,100393.72
2023-05-24T18:26:09.850Z,100388.69
2023-05-24T18:28:38.293Z,100396.38
2023-05-24T18:31:10.546Z,100395.53
2023-05-24T18:33:38.123Z,100395.53
2023-05-24T18:36:06.385Z,100400.69
2023-05-24T18:38:37.219Z,100393.91
2023-05-24T18:41:06.330Z,100396.53
2023-05-24T18:43:33.889Z,100393.19
2023-05-24T18:46:04.566Z,100394.16
2023-05-24T18:48:51.897Z,100393.44
2023-05-24T18:51:26.244Z,100400.41
2023-05-24T18:53:55.042Z,100403.06
2023-05-24T18:56:48.396Z,100403.19
2023-05-24T18:59:16.840Z,100399.00
2023-05-24T19:01:44.631Z,100405.88
2023-05-24T19:04:11.855Z,100407.66
2023-05-24T19:06:39.226Z,100400.00
2023-05-24T19:09:06.806Z,100409.44
2023-05-24T19:11:33.881Z,100418.00
2023-05-24T19:14:00.907Z,100410.34
2023-05-24T19:16:28.351Z,100412.94
2023-05-24T19:18:56.609Z,100418.06
2023-05-24T19:21:25.322Z,100413.88
2023-05-24T19:23:53.482Z,100418.19
2023-05-24T19:26:21.018Z,100421.69
2023-05-24T19:28:51.613Z,100421.75
2023-05-24T19:31:19.293Z,100424.41
2023-05-24T19:33:59.893Z,100425.38
2023-05-24T19:36:30.732Z,100441.59
2023-05-24T19:38:57.828Z,100435.66
2023-05-24T19:41:25.506Z,100441.69
2023-05-24T19:43:55.636Z,100447.69
2023-05-24T19:46:24.568Z,100440.03
2023-05-24T19:48:51.816Z,100456.25
2023-05-24T19:51:19.752Z,100454.56
2023-05-24T19:53:46.849Z,100449.50
2023-05-24T19:56:13.858Z,100450.41
2023-05-24T19:58:41.006Z,100450.44
2023-05-24T20:01:08.217Z,100451.31
2023-05-24T20:03:35.309Z,100452.22
2023-05-24T20:06:03.746Z,100460.78
2023-05-24T20:08:31.130Z,100454.03
2023-05-24T20:10:58.134Z,100460.88
2023-05-24T20:13:25.276Z,100460.06
2023-05-24T20:15:55.003Z,100472.03
2023-05-24T20:18:23.075Z,100474.63
2023-05-24T20:20:50.285Z,100461.94
2023-05-24T20:23:17.339Z,100468.78
2023-05-24T20:25:44.710Z,100467.97
2023-05-24T20:28:25.712Z,100469.72
2023-05-24T20:30:57.080Z,100470.66
2023-05-24T20:33:24.195Z,100471.53
2023-05-24T20:35:52.973Z,100475.81
2023-05-24T20:38:20.629Z,100475.84
2023-05-24T20:40:47.635Z,100479.25
2023-05-24T20:43:14.743Z,100478.44
2023-05-24T20:45:41.995Z,100481.88
2023-05-24T20:48:09.264Z,100483.63
2023-05-24T20:50:36.365Z,100480.25
2023-05-24T20:53:03.432Z,100482.81
2023-05-24T20:55:31.439Z,100484.53
2023-05-24T20:57:58.450Z,100483.72
2023-05-24T21:00:25.554Z,100487.13
2023-05-24T21:02:52.792Z,100489.69
2023-05-24T21:05:19.982Z,100486.31
2023-05-24T21:07:47.099Z,100487.19
2023-05-24T21:10:18.685Z,100485.50
2023-05-24T21:12:47.905Z,100488.94
2023-05-24T21:15:15.241Z,100480.47
2023-05-24T21:17:42.389Z,100492.38
2023-05-24T21:20:10.050Z,100496.63
2023-05-24T21:22:37.099Z,100499.19
2023-05-24T21:25:04.889Z,100500.91
2023-05-24T21:27:31.919Z,100504.31
2023-05-24T21:29:59.166Z,100507.69
2023-05-24T21:32:26.213Z,100509.41
2023-05-24T21:34:53.284Z,100495.00
2023-05-24T21:37:20.456Z,100503.50
2023-05-24T21:39:47.957Z,100500.91
2023-05-24T21:42:15.419Z,100503.47
2023-05-24T21:44:42.685Z,100508.56
2023-05-24T21:47:09.765Z,100498.38
2023-05-24T21:49:36.996Z,100501.78
2023-05-24T21:52:04.394Z,100505.19
2023-05-24T21:54:31.393Z,100509.41
2023-05-24T21:56:58.444Z,100506.88
2023-05-24T21:59:25.471Z,100507.75
2023-05-24T22:01:52.671Z,100513.69
2023-05-24T22:04:38.380Z,100511.94
2023-05-24T22:07:06.827Z,100517.91
2023-05-24T22:09:34.037Z,100516.19
2023-05-24T22:12:01.697Z,100529.78
2023-05-24T22:14:29.193Z,100526.38
2023-05-24T22:16:56.432Z,100528.09
2023-05-24T22:19:38.999Z,100530.63
2023-05-24T22:22:09.970Z,100523.81
2023-05-24T22:24:37.102Z,100522.16
2023-05-24T22:27:05.110Z,100528.06
2023-05-24T22:29:32.169Z,100527.19
2023-05-24T22:31:59.247Z,100529.75
2023-05-24T22:34:29.417Z,100532.28
2023-05-24T22:36:57.654Z,100533.13
2023-05-24T22:39:25.159Z,100529.75
2023-05-24T22:41:53.321Z,100527.19
2023-05-24T22:44:20.782Z,100533.16
2023-05-24T22:46:49.765Z,100522.97
2023-05-24T22:49:19.353Z,100533.16
2023-05-24T22:51:48.733Z,100527.22
2023-05-24T22:54:16.615Z,100533.16
2023-05-24T22:56:44.172Z,100534.03
2023-05-24T22:59:11.526Z,100527.22
2023-05-24T23:01:39.012Z,100531.47
2023-05-24T23:04:19.642Z,100534.84
2023-05-24T23:06:52.237Z,100534.00
2023-05-24T23:09:29.005Z,100539.09
2023-05-24T23:11:58.269Z,100543.34
2023-05-24T23:14:25.558Z,100538.22
2023-05-24T23:16:52.605Z,100535.66
2023-05-24T23:19:19.700Z,100543.31
2023-05-24T23:21:46.807Z,100549.22
2023-05-24T23:24:16.908Z,100544.13
2023-05-24T23:26:44.045Z,100546.66
2023-05-24T23:29:11.311Z,100543.25
2023-05-24T23:31:38.562Z,100539.03
2023-05-24T23:34:05.783Z,100544.97
2023-05-24T23:36:33.515Z,100535.63
2023-05-24T23:39:00.647Z,100533.06
2023-05-24T23:41:27.844Z,100539.00
2023-05-24T23:43:54.976Z,100533.91
2023-05-24T23:46:22.140Z,100546.59
2023-05-24T23:48:49.463Z,100543.16
2023-05-24T23:51:16.718Z,100547.41
2023-05-24T23:53:43.967Z,100553.34
2023-05-24T23:56:11.253Z,100551.63
2023-05-24T23:58:38.374Z,100555.88
